Home   Weather   Netherlands   Haarlem   Past weeks
Flag for Netherlands

Past Weather in Haarlem, Netherlands — Yesterday and Last 2 Weeks

Currently: 63 °F. Passing clouds. (Weather station: Amsterdam Schiphol Airport, Netherlands). See more current weather

Past Weather in Haarlem — Graph

°F

Haarlem Temperature Yesterday

Maximum temperature yesterday: 66 °F (at 2:55 pm)
Minimum temperature yesterday: 50 °F (at 4:25 am)
Average temperature yesterday: 59 °F

High & Low Weather Summary for the Past Weeks

 TemperatureHumidityPressure
High77 °F (Jul 21, 2:55 pm)100% (Jul 21, 4:25 am)30.24 "Hg (Jul 21, 4:25 am)
Low50 °F (Aug 2, 4:55 am)46% (Jul 29, 2:55 pm)29.59 "Hg (Jul 30, 10:55 pm)
Average64 °F79%29.88 "Hg
* Reported Jul 20 7:25 pm — Aug 4 7:25 pm, Haarlem. Weather by CustomWeather, © 2021

Note: Actual official high and low records may vary slightly from our data, if they occured in-between our weather recording intervals... More about our weather records

Haarlem Weather History for the Previous 24 Hours

Scroll right to see more
 ConditionsComfort  
Time TempWeatherWind HumidityBarometerVisibility
7:25 pm
Wed, Aug 4
63 °FPassing clouds.3 mph88%29.89 "HgN/A
6:55 pm61 °FSprinkles. Passing clouds.2 mph83%29.89 "Hg6 mi
6:25 pm59 °FThunderstorms. Scattered clouds.12 mph88%29.92 "Hg4 mi
5:55 pm64 °FSprinkles. Scattered clouds.10 mph83%29.89 "HgN/A
5:25 pm68 °FSprinkles. Scattered clouds.7 mph69%29.89 "HgN/A
4:55 pm68 °FScattered clouds.7 mph64%29.89 "HgN/A
4:25 pm68 °FScattered showers. Passing clouds.7 mph64%29.89 "HgN/A
3:55 pm70 °FPassing clouds.7 mph60%29.89 "HgN/A
3:25 pm70 °FPassing clouds.8 mph57%29.92 "HgN/A
2:55 pm70 °FPassing clouds.5 mph57%29.92 "HgN/A
2:25 pm72 °FPassing clouds.6 mph57%29.92 "HgN/A
1:55 pm68 °FPassing clouds.6 mph64%29.92 "HgN/A
1:25 pm68 °FScattered clouds.6 mph60%29.92 "HgN/A
12:55 pm70 °FScattered clouds.3 mph57%29.92 "HgN/A
12:25 pm70 °FScattered clouds.5 mph57%29.92 "HgN/A
11:55 am68 °FPassing clouds.6 mph64%29.92 "HgN/A
11:25 am68 °FPassing clouds.5 mph64%29.95 "HgN/A
10:55 am66 °FPassing clouds.6 mph68%29.95 "HgN/A
10:25 am64 °FPassing clouds.5 mph73%29.95 "HgN/A
9:55 am64 °FPassing clouds.5 mph73%29.95 "HgN/A
9:25 am63 °FPassing clouds.6 mph77%29.95 "HgN/A
8:55 am63 °FPassing clouds.5 mph77%29.95 "HgN/A
8:25 am59 °FSunny.5 mph88%29.95 "Hg10 mi
7:55 am59 °FSunny.1 mph88%29.95 "Hg10 mi
7:25 am55 °FFog.1 mph94%29.95 "HgN/A
6:55 am54 °FFog.2 mph100%29.95 "HgN/A
6:25 am54 °FFog.2 mph100%29.92 "HgN/A
5:55 am54 °FFog.3 mph94%29.92 "HgN/A
5:25 am54 °FPassing clouds.2 mph94%29.92 "HgN/A
4:55 am52 °FPassing clouds.1 mph100%29.92 "HgN/A
4:25 am54 °FPassing clouds.2 mph94%29.92 "HgN/A
3:55 am52 °FPassing clouds.1 mph100%29.92 "HgN/A
3:25 am54 °FPassing clouds.1 mph100%29.95 "HgN/A
2:55 am52 °FClear.1 mph100%29.92 "Hg10 mi
2:25 am55 °FClear.1 mph94%29.95 "Hg10 mi
1:55 am54 °FClear.2 mph100%29.92 "Hg10 mi
1:25 am55 °FClear.2 mph94%29.92 "Hg10 mi
12:55 am55 °FClear.5 mph94%29.95 "Hg10 mi
12:25 am55 °FClear.3 mph88%29.95 "Hg10 mi
11:55 pm
Tue, Aug 3
57 °FClear.5 mph88%29.95 "Hg10 mi
11:25 pm57 °FClear.3 mph88%29.95 "Hg10 mi
10:55 pm57 °FClear.5 mph82%29.92 "Hg10 mi
10:25 pm57 °FPassing clouds.5 mph82%29.92 "HgN/A
9:55 pm59 °FPassing clouds.5 mph77%29.92 "HgN/A
9:25 pm59 °FPassing clouds.5 mph77%29.92 "HgN/A
8:55 pm63 °FPassing clouds.8 mph68%29.92 "HgN/A
8:25 pm63 °FPassing clouds.6 mph73%29.92 "HgN/A
Weather by CustomWeather, © 2021

See weather overview